Terminal Aerodrome Forecast
Issued by NWS

Home | Current Version | Previous Version | Text Only | Print | Product List | Glossary On
Versions: 1 2 3 4 5 6 7 8 9 10 11 12 13
000
FTUS42 KMLB 291125
TAFSUA
TAF
KSUA 291125Z 2912/3012 21003KT P6SM SCT050
     FM291500 10006KT P6SM VCSH SCT035
     FM291800 11012KT P6SM SCT040
     FM300300 19004KT P6SM FEW050 SCT250=

USA.gov is the U.S. government's official web portal to all federal, state and local government web resources and services.